Time;durP1;ratioP1;P1;durP2;ratioP2;P2;SDS_P1;SDS_P2;PMS_P1;PMS_P2;Temp;Humidity;BMP_temperature;BMP_pressure;BME280_temperature;BME280_humidity;BME280_pressure;Samples;Min_cycle;Max_cycle;Signal;HPM_P1;HPM_P2
2023/12/26 00:01:29;;;;;;;5.50;2.10;;;;;;;;;;103647;1292;546189;-71
2023/12/26 00:05:07;;;;;;;4.00;1.40;;;;;;;;;;103595;1292;545172;-71
2023/12/26 00:08:44;;;;;;;4.10;1.50;;;;;;;;;;104041;1287;545524;-70
2023/12/26 00:12:24;;;;;;;3.40;1.10;;;;;;;;;;103627;1292;545542;-71
2023/12/26 00:15:59;;;;;;;4.10;1.00;;;;;;;;;;103536;1296;545097;-70
2023/12/26 00:19:37;;;;;;;6.70;2.00;;;;;;;;;;103609;1292;545896;-71
2023/12/26 00:23:20;;;;;;;8.80;3.30;;;;;;;;;;103420;1292;545479;-71
2023/12/26 00:26:51;;;;;;;17.50;7.00;;;;;;;;;;103933;1289;545643;-70
2023/12/26 00:30:29;;;;;;;13.40;4.90;;;;;;;;;;103838;1291;545738;-71
2023/12/26 00:34:07;;;;;;;14.70;5.50;;;;;;;;;;103533;1295;545711;-70
2023/12/26 00:37:44;;;;;;;13.40;5.00;;;;;;;;;;103897;1295;545739;-70
2023/12/26 00:41:21;;;;;;;11.90;4.00;;;;;;;;;;103504;1294;545560;-70
2023/12/26 00:44:58;;;;;;;9.40;3.10;;;;;;;;;;103992;1291;545377;-70
2023/12/26 00:48:32;;;;;;;9.50;2.80;;;;;;;;;;103721;1292;545119;-70
2023/12/26 00:52:13;;;;;;;7.80;2.50;;;;;;;;;;103626;1292;545101;-73
2023/12/26 00:55:47;;;;;;;9.10;2.80;;;;;;;;;;103957;1296;544924;-70
2023/12/26 00:59:28;;;;;;;8.90;2.60;;;;;;;;;;103563;1295;546221;-70
2023/12/26 01:03:06;;;;;;;8.30;2.70;;;;;;;;;;103519;1292;544996;-70
2023/12/26 01:06:40;;;;;;;6.30;2.00;;;;;;;;;;104155;1285;545559;-71
2023/12/26 01:10:21;;;;;;;7.70;2.30;;;;;;;;;;103716;1292;546103;-71
2023/12/26 01:13:58;;;;;;;5.00;1.80;;;;;;;;;;103541;1298;545198;-71
2023/12/26 01:17:35;;;;;;;4.80;1.70;;;;;;;;;;103885;1292;545654;-71
2023/12/26 01:21:13;;;;;;;3.90;1.40;;;;;;;;;;103539;1291;545284;-71
2023/12/26 01:24:47;;;;;;;5.20;1.90;;;;;;;;;;103863;1292;544980;-72
2023/12/26 01:28:29;;;;;;;3.60;1.50;;;;;;;;;;103795;1292;545434;-71
2023/12/26 01:32:06;;;;;;;3.20;1.10;;;;;;;;;;103602;1292;544826;-72
2023/12/26 01:35:43;;;;;;;3.20;1.00;;;;;;;;;;103537;1292;545264;-71
2023/12/26 01:39:20;;;;;;;2.90;1.30;;;;;;;;;;103828;1291;545044;-72
2023/12/26 01:42:57;;;;;;;3.10;1.10;;;;;;;;;;103576;1292;545157;-71
2023/12/26 01:46:35;;;;;;;2.60;1.00;;;;;;;;;;103741;1292;545050;-72
2023/12/26 01:50:14;;;;;;;2.70;1.00;;;;;;;;;;103760;1292;545159;-71
2023/12/26 01:53:51;;;;;;;3.00;1.10;;;;;;;;;;103647;1295;545224;-71
2023/12/26 01:57:29;;;;;;;3.10;1.10;;;;;;;;;;103857;1288;545219;-72
2023/12/26 02:01:05;;;;;;;2.90;0.90;;;;;;;;;;103531;1291;544890;-71
2023/12/26 02:04:43;;;;;;;3.20;1.20;;;;;;;;;;103603;1295;545272;-72
2023/12/26 02:08:21;;;;;;;3.40;1.10;;;;;;;;;;103789;1292;544999;-73
2023/12/26 02:11:58;;;;;;;3.20;1.00;;;;;;;;;;103576;1291;545328;-73
2023/12/26 02:15:31;;;;;;;6.00;1.60;;;;;;;;;;103760;1295;545068;-72
2023/12/26 02:19:13;;;;;;;4.50;1.30;;;;;;;;;;103590;1292;545857;-71
2023/12/26 02:22:50;;;;;;;5.70;1.70;;;;;;;;;;103534;1294;545076;-71
2023/12/26 02:26:28;;;;;;;5.70;1.40;;;;;;;;;;104228;1286;545517;-71
2023/12/26 02:30:06;;;;;;;5.50;1.40;;;;;;;;;;103632;1290;545021;-72
2023/12/26 02:33:45;;;;;;;4.70;1.30;;;;;;;;;;103679;1295;545078;-71
2023/12/26 02:37:23;;;;;;;4.60;1.60;;;;;;;;;;104036;1292;545021;-71
2023/12/26 02:40:57;;;;;;;3.50;1.20;;;;;;;;;;103509;1294;545223;-72
2023/12/26 02:44:35;;;;;;;2.60;0.70;;;;;;;;;;103492;1297;545473;-71
2023/12/26 02:48:12;;;;;;;3.10;0.90;;;;;;;;;;103749;1289;544967;-71
2023/12/26 02:51:49;;;;;;;3.60;0.90;;;;;;;;;;103956;1288;544797;-71
2023/12/26 02:55:27;;;;;;;2.80;0.90;;;;;;;;;;103560;1295;545244;-70
2023/12/26 02:59:04;;;;;;;3.00;1.00;;;;;;;;;;103811;1292;545069;-71
2023/12/26 03:02:42;;;;;;;4.20;1.00;;;;;;;;;;103519;1295;545125;-70
2023/12/26 03:06:19;;;;;;;4.20;1.10;;;;;;;;;;104615;1282;544860;-71
2023/12/26 03:09:57;;;;;;;3.30;0.70;;;;;;;;;;103633;1292;545334;-71
2023/12/26 03:13:34;;;;;;;3.50;0.90;;;;;;;;;;103684;1291;544842;-71
2023/12/26 03:17:12;;;;;;;3.40;0.90;;;;;;;;;;103835;1289;544879;-71
2023/12/26 03:20:49;;;;;;;3.10;0.70;;;;;;;;;;103896;1289;545076;-72
2023/12/26 03:24:27;;;;;;;2.40;0.70;;;;;;;;;;103641;1295;545028;-71
2023/12/26 03:28:04;;;;;;;1.30;0.60;;;;;;;;;;103716;1292;545313;-71
2023/12/26 03:31:42;;;;;;;2.90;0.80;;;;;;;;;;103971;1288;545405;-71
2023/12/26 03:35:19;;;;;;;4.00;0.90;;;;;;;;;;104113;1288;545106;-71
2023/12/26 03:38:57;;;;;;;4.20;1.10;;;;;;;;;;103901;1289;545463;-70
2023/12/26 03:42:34;;;;;;;3.10;0.90;;;;;;;;;;103592;1293;545178;-71
2023/12/26 03:46:17;;;;;;;1.70;0.70;;;;;;;;;;103259;1298;545965;-71
2023/12/26 03:49:54;;;;;;;3.00;0.80;;;;;;;;;;103418;1292;544936;-71
2023/12/26 03:53:27;;;;;;;1.60;0.60;;;;;;;;;;103724;1289;545048;-72
2023/12/26 03:57:04;;;;;;;2.00;0.70;;;;;;;;;;103789;1292;545094;-70
2023/12/26 04:00:41;;;;;;;1.30;0.60;;;;;;;;;;103852;1289;544854;-72
2023/12/26 04:04:19;;;;;;;2.20;0.90;;;;;;;;;;103692;1294;545495;-71
2023/12/26 04:07:56;;;;;;;1.50;0.50;;;;;;;;;;104221;1289;546130;-71
2023/12/26 04:11:34;;;;;;;2.30;0.60;;;;;;;;;;103684;1292;545274;-71
2023/12/26 04:15:11;;;;;;;1.60;0.50;;;;;;;;;;103461;1299;545673;-71
2023/12/26 04:18:49;;;;;;;1.00;0.50;;;;;;;;;;104748;1282;545042;-72
2023/12/26 04:22:26;;;;;;;1.70;0.70;;;;;;;;;;103439;1298;545582;-71
2023/12/26 04:26:03;;;;;;;1.00;0.50;;;;;;;;;;103643;1292;545221;-72
2023/12/26 04:29:41;;;;;;;1.70;0.60;;;;;;;;;;103633;1292;544911;-75
2023/12/26 04:33:19;;;;;;;1.40;0.50;;;;;;;;;;103572;1291;544890;-71
2023/12/26 04:36:56;;;;;;;1.70;0.60;;;;;;;;;;103589;1298;545247;-72
2023/12/26 04:40:34;;;;;;;1.10;0.60;;;;;;;;;;103635;1292;545586;-72
2023/12/26 04:44:11;;;;;;;1.50;0.60;;;;;;;;;;103773;1290;545076;-71
2023/12/26 04:47:49;;;;;;;1.20;0.60;;;;;;;;;;103735;1292;545103;-71
2023/12/26 04:51:28;;;;;;;0.90;0.40;;;;;;;;;;103625;1292;545528;-71
2023/12/26 04:55:04;;;;;;;1.00;0.50;;;;;;;;;;103472;1298;545264;-72
2023/12/26 04:58:41;;;;;;;1.20;0.70;;;;;;;;;;103751;1292;545023;-72
2023/12/26 05:02:18;;;;;;;1.70;0.60;;;;;;;;;;103826;1288;545234;-70
2023/12/26 05:05:56;;;;;;;1.30;0.60;;;;;;;;;;103581;1291;545554;-71
2023/12/26 05:09:33;;;;;;;2.30;0.80;;;;;;;;;;103618;1292;545138;-71
2023/12/26 05:13:11;;;;;;;3.20;0.70;;;;;;;;;;103794;1290;545073;-71
2023/12/26 05:16:50;;;;;;;1.40;0.60;;;;;;;;;;103753;1292;545660;-73
2023/12/26 05:20:26;;;;;;;6.90;2.30;;;;;;;;;;103673;1294;545120;-71
2023/12/26 05:24:04;;;;;;;17.20;8.60;;;;;;;;;;103589;1291;544945;-74
2023/12/26 05:27:41;;;;;;;3.70;1.40;;;;;;;;;;103914;1288;545546;-71
2023/12/26 05:31:18;;;;;;;1.40;0.50;;;;;;;;;;103677;1292;545539;-73
2023/12/26 05:34:55;;;;;;;0.70;0.40;;;;;;;;;;103857;1291;545062;-72
2023/12/26 05:38:35;;;;;;;2.00;0.70;;;;;;;;;;103891;1296;545793;-72
2023/12/26 05:42:11;;;;;;;2.10;0.50;;;;;;;;;;104283;1283;544861;-71
2023/12/26 05:45:48;;;;;;;2.70;0.70;;;;;;;;;;103607;1295;545003;-72
2023/12/26 05:49:26;;;;;;;2.40;0.70;;;;;;;;;;104176;1286;544966;-70
2023/12/26 05:53:03;;;;;;;4.40;1.70;;;;;;;;;;103504;1292;545792;-70
2023/12/26 05:56:42;;;;;;;16.30;8.20;;;;;;;;;;103406;1301;545140;-70
2023/12/26 06:00:18;;;;;;;9.00;2.20;;;;;;;;;;103757;1294;545902;-71
2023/12/26 06:03:56;;;;;;;4.20;1.00;;;;;;;;;;103816;1289;545095;-70
2023/12/26 06:07:33;;;;;;;5.70;1.90;;;;;;;;;;103579;1294;545044;-71
2023/12/26 06:11:09;;;;;;;6.40;1.90;;;;;;;;;;103890;1288;544910;-71
2023/12/26 06:14:50;;;;;;;3.00;1.00;;;;;;;;;;103636;1292;544908;-70
2023/12/26 06:18:27;;;;;;;5.20;1.30;;;;;;;;;;104107;1299;545855;-71
2023/12/26 06:22:04;;;;;;;4.30;1.50;;;;;;;;;;103813;1295;545027;-71
2023/12/26 06:25:42;;;;;;;3.10;1.10;;;;;;;;;;103647;1292;545035;-72
2023/12/26 06:29:19;;;;;;;4.50;1.80;;;;;;;;;;104101;1286;545087;-71
2023/12/26 06:32:57;;;;;;;3.40;1.10;;;;;;;;;;103960;1292;545633;-70
2023/12/26 06:36:54;;;;;;;4.60;1.50;;;;;;;;;;103440;1294;548056;-72
2023/12/26 06:40:12;;;;;;;2.40;0.90;;;;;;;;;;103760;1289;546162;-71
2023/12/26 06:43:49;;;;;;;3.50;1.10;;;;;;;;;;103603;1292;544814;-70
2023/12/26 06:47:27;;;;;;;4.90;1.70;;;;;;;;;;103999;1288;544928;-71
2023/12/26 06:51:05;;;;;;;3.40;1.10;;;;;;;;;;103808;1290;544863;-71
2023/12/26 06:54:42;;;;;;;1.50;0.80;;;;;;;;;;104049;1292;544977;-71
2023/12/26 06:58:18;;;;;;;2.60;1.00;;;;;;;;;;103639;1295;545139;-72
2023/12/26 07:01:56;;;;;;;1.60;0.80;;;;;;;;;;103741;1292;545142;-71
2023/12/26 07:05:34;;;;;;;1.80;0.80;;;;;;;;;;103663;1291;545136;-69
2023/12/26 07:09:11;;;;;;;1.90;0.80;;;;;;;;;;103745;1294;545100;-72
2023/12/26 07:12:48;;;;;;;1.50;0.70;;;;;;;;;;103701;1292;546157;-72
2023/12/26 07:16:26;;;;;;;1.70;0.60;;;;;;;;;;103593;1292;545108;-70
2023/12/26 07:20:04;;;;;;;0.90;0.60;;;;;;;;;;103598;1295;544888;-71
2023/12/26 07:23:44;;;;;;;1.40;0.60;;;;;;;;;;103758;1296;544823;-69
2023/12/26 07:27:19;;;;;;;1.20;0.60;;;;;;;;;;103595;1292;545134;-72
2023/12/26 07:30:57;;;;;;;2.60;0.70;;;;;;;;;;103436;1298;544841;-71
2023/12/26 07:34:33;;;;;;;1.70;0.60;;;;;;;;;;103626;1292;545133;-70
2023/12/26 07:38:11;;;;;;;1.30;0.60;;;;;;;;;;103623;1292;545100;-72
2023/12/26 07:41:48;;;;;;;1.60;0.80;;;;;;;;;;103767;1289;545466;-71
2023/12/26 07:45:26;;;;;;;1.70;0.80;;;;;;;;;;103537;1297;545614;-71
2023/12/26 07:49:03;;;;;;;1.90;0.80;;;;;;;;;;104586;1283;545061;-71
2023/12/26 07:52:41;;;;;;;1.20;0.70;;;;;;;;;;103631;1292;545087;-71
2023/12/26 07:56:18;;;;;;;2.80;1.20;;;;;;;;;;103512;1295;545111;-72
2023/12/26 07:59:52;;;;;;;2.40;0.90;;;;;;;;;;103792;1296;545576;-71
2023/12/26 08:03:36;;;;;;;1.90;0.80;;;;;;;;;;103726;1291;545516;-73
2023/12/26 08:07:10;;;;;;;2.20;0.80;;;;;;;;;;103706;1293;545377;-71
2023/12/26 08:10:47;;;;;;;2.10;1.00;;;;;;;;;;104191;1289;544840;-73
2023/12/26 08:14:27;;;;;;;1.60;0.90;;;;;;;;;;103619;1292;545243;-70
2023/12/26 08:18:04;;;;;;;1.90;0.90;;;;;;;;;;103743;1295;545321;-71
2023/12/26 08:21:42;;;;;;;2.80;1.10;;;;;;;;;;103857;1289;545062;-71
2023/12/26 08:25:19;;;;;;;2.50;0.70;;;;;;;;;;103628;1295;545193;-71
2023/12/26 08:29:02;;;;;;;3.40;1.30;;;;;;;;;;103746;1302;545515;-72
2023/12/26 08:32:53;;;;;;;1.60;0.90;;;;;;;;;;103842;1292;545525;-70
2023/12/26 08:36:12;;;;;;;2.20;1.00;;;;;;;;;;103533;1292;545065;-71
2023/12/26 08:39:49;;;;;;;2.70;1.10;;;;;;;;;;103453;1298;544867;-70
2023/12/26 08:43:23;;;;;;;1.30;0.70;;;;;;;;;;103811;1292;545220;-72
2023/12/26 08:47:04;;;;;;;1.80;0.90;;;;;;;;;;103616;1292;545058;-74
2023/12/26 08:50:41;;;;;;;1.80;0.80;;;;;;;;;;103799;1290;544830;-74
2023/12/26 08:54:20;;;;;;;4.30;0.90;;;;;;;;;;103507;1294;544956;-72
2023/12/26 08:57:57;;;;;;;3.10;1.20;;;;;;;;;;103803;1295;545165;-71
2023/12/26 09:01:30;;;;;;;2.50;1.00;;;;;;;;;;103779;1299;545041;-73
2023/12/26 09:05:12;;;;;;;2.60;0.90;;;;;;;;;;103740;1291;545083;-70
2023/12/26 09:08:48;;;;;;;2.00;0.70;;;;;;;;;;103694;1295;545034;-71
2023/12/26 09:12:26;;;;;;;3.20;1.20;;;;;;;;;;103790;1291;546400;-73
2023/12/26 09:16:04;;;;;;;2.20;1.00;;;;;;;;;;103603;1292;544903;-71
2023/12/26 09:19:41;;;;;;;1.80;0.80;;;;;;;;;;103670;1291;545825;-71
2023/12/26 09:23:19;;;;;;;2.90;0.80;;;;;;;;;;103755;1295;545082;-73
2023/12/26 09:26:56;;;;;;;1.90;0.70;;;;;;;;;;103597;1291;545186;-74
2023/12/26 09:30:34;;;;;;;2.40;1.00;;;;;;;;;;103770;1292;545682;-70
2023/12/26 09:34:11;;;;;;;1.80;0.90;;;;;;;;;;103598;1292;545628;-72
2023/12/26 09:37:49;;;;;;;2.60;1.10;;;;;;;;;;103596;1295;545654;-71
2023/12/26 09:41:26;;;;;;;3.20;1.40;;;;;;;;;;103857;1292;544897;-72
2023/12/26 09:45:09;;;;;;;2.00;1.10;;;;;;;;;;103736;1291;545699;-72
2023/12/26 09:48:49;;;;;;;2.20;0.90;;;;;;;;;;104216;1283;544854;-71
2023/12/26 09:52:21;;;;;;;2.20;1.20;;;;;;;;;;104222;1286;545821;-71
2023/12/26 09:55:58;;;;;;;3.10;1.60;;;;;;;;;;103642;1292;544932;-71
2023/12/26 09:59:37;;;;;;;6.70;3.20;;;;;;;;;;103729;1290;545105;-71
2023/12/26 10:03:13;;;;;;;5.50;2.30;;;;;;;;;;103404;1301;544891;-71
2023/12/26 10:06:50;;;;;;;4.00;2.00;;;;;;;;;;103733;1292;545036;-70
2023/12/26 10:10:30;;;;;;;4.80;2.30;;;;;;;;;;103662;1295;545034;-70
2023/12/26 10:14:07;;;;;;;4.10;1.90;;;;;;;;;;103618;1304;545479;-73
2023/12/26 10:17:45;;;;;;;2.70;0.90;;;;;;;;;;103822;1292;546009;-71
2023/12/26 10:21:18;;;;;;;5.80;2.00;;;;;;;;;;103823;1291;545152;-74
2023/12/26 10:25:00;;;;;;;4.20;1.70;;;;;;;;;;103954;1292;545125;-74
2023/12/26 10:28:41;;;;;;;3.70;1.60;;;;;;;;;;103902;1289;545047;-73
2023/12/26 10:32:14;;;;;;;3.80;1.50;;;;;;;;;;103639;1298;545788;-72
2023/12/26 10:36:03;;;;;;;3.30;1.30;;;;;;;;;;103679;1291;544845;-73
2023/12/26 10:39:29;;;;;;;3.40;1.40;;;;;;;;;;103845;1289;544774;-72
2023/12/26 10:43:06;;;;;;;3.20;1.20;;;;;;;;;;103599;1291;545644;-71
2023/12/26 10:46:45;;;;;;;3.30;1.60;;;;;;;;;;104228;1285;545691;-71
2023/12/26 10:50:22;;;;;;;5.10;2.20;;;;;;;;;;103621;1292;545539;-71
2023/12/26 10:54:12;;;;;;;6.60;2.90;;;;;;;;;;103476;1292;545044;-72
2023/12/26 10:57:37;;;;;;;6.10;2.60;;;;;;;;;;103950;1289;545191;-72
2023/12/26 11:01:10;;;;;;;3.20;1.40;;;;;;;;;;103491;1295;545307;-71
2023/12/26 11:04:52;;;;;;;6.10;2.50;;;;;;;;;;103901;1290;545105;-71
2023/12/26 11:08:29;;;;;;;6.90;2.70;;;;;;;;;;103832;1289;545112;-71
2023/12/26 11:12:07;;;;;;;3.30;1.30;;;;;;;;;;103744;1292;545006;-70
2023/12/26 11:15:50;;;;;;;4.80;1.80;;;;;;;;;;103715;1292;545079;-72
2023/12/26 11:19:21;;;;;;;5.00;1.70;;;;;;;;;;103866;1290;545019;-73
2023/12/26 11:22:58;;;;;;;6.40;2.60;;;;;;;;;;103613;1292;545475;-73
2023/12/26 11:26:36;;;;;;;7.70;3.80;;;;;;;;;;103817;1294;544823;-70
2023/12/26 11:30:10;;;;;;;8.50;3.90;;;;;;;;;;104152;1286;544850;-72
2023/12/26 11:33:51;;;;;;;7.40;2.60;;;;;;;;;;103561;1293;545696;-70
2023/12/26 11:37:29;;;;;;;8.80;3.20;;;;;;;;;;103618;1292;545172;-70
2023/12/26 11:41:07;;;;;;;9.40;4.50;;;;;;;;;;103671;1291;544942;-71
2023/12/26 11:44:44;;;;;;;13.30;5.20;;;;;;;;;;104204;1289;545177;-69
2023/12/26 11:48:21;;;;;;;9.80;4.50;;;;;;;;;;104204;1285;545111;-70
2023/12/26 11:51:59;;;;;;;17.70;9.20;;;;;;;;;;103534;1295;546815;-70
2023/12/26 11:55:36;;;;;;;7.90;3.60;;;;;;;;;;103736;1292;545030;-69
2023/12/26 11:59:14;;;;;;;9.20;4.20;;;;;;;;;;103921;1292;544904;-73
2023/12/26 12:02:51;;;;;;;6.60;2.50;;;;;;;;;;103675;1294;545134;-72
2023/12/26 12:06:29;;;;;;;6.30;2.60;;;;;;;;;;103551;1298;544893;-72
2023/12/26 12:10:09;;;;;;;5.90;2.10;;;;;;;;;;104296;1286;545034;-69
2023/12/26 12:14:03;;;;;;;5.20;1.90;;;;;;;;;;103882;1291;545457;-72
2023/12/26 12:17:21;;;;;;;5.00;1.80;;;;;;;;;;103602;1292;544911;-69
2023/12/26 12:20:59;;;;;;;5.50;1.80;;;;;;;;;;103518;1292;544790;-71
2023/12/26 12:24:36;;;;;;;7.90;3.00;;;;;;;;;;103694;1290;544896;-71
2023/12/26 12:28:13;;;;;;;6.80;2.30;;;;;;;;;;103791;1290;544866;-72
2023/12/26 12:32:10;;;;;;;3.80;1.10;;;;;;;;;;103593;1292;545092;-68
2023/12/26 12:35:28;;;;;;;3.50;1.30;;;;;;;;;;103685;1294;545086;-71
2023/12/26 12:39:06;;;;;;;5.00;1.60;;;;;;;;;;104051;1285;545114;-71
2023/12/26 12:42:43;;;;;;;3.80;1.50;;;;;;;;;;103659;1291;545532;-71
2023/12/26 12:46:20;;;;;;;4.40;1.70;;;;;;;;;;104040;1291;545327;-71
2023/12/26 12:49:59;;;;;;;3.80;1.20;;;;;;;;;;103640;1292;544870;-72
2023/12/26 12:53:39;;;;;;;4.00;1.40;;;;;;;;;;103854;1291;546261;-70
2023/12/26 12:57:13;;;;;;;5.00;1.60;;;;;;;;;;103754;1295;545514;-69
2023/12/26 13:00:47;;;;;;;8.80;3.90;;;;;;;;;;103597;1291;545486;-70
2023/12/26 13:04:28;;;;;;;5.20;2.60;;;;;;;;;;103729;1302;545928;-70
2023/12/26 13:08:06;;;;;;;4.90;2.10;;;;;;;;;;103618;1292;545524;-70
2023/12/26 13:11:43;;;;;;;5.50;2.60;;;;;;;;;;103761;1294;545374;-71
2023/12/26 13:15:20;;;;;;;5.60;2.30;;;;;;;;;;103831;1291;544973;-69
2023/12/26 13:18:58;;;;;;;5.30;2.20;;;;;;;;;;103634;1290;544896;-71
2023/12/26 13:22:35;;;;;;;6.90;3.40;;;;;;;;;;103635;1292;544973;-70
2023/12/26 13:26:13;;;;;;;7.70;3.70;;;;;;;;;;104162;1286;545384;-69
2023/12/26 13:29:50;;;;;;;6.30;2.10;;;;;;;;;;103738;1289;546377;-69
2023/12/26 13:33:33;;;;;;;7.90;1.70;;;;;;;;;;104225;1285;544805;-69
2023/12/26 13:37:05;;;;;;;8.00;3.00;;;;;;;;;;103889;1292;545326;-69
2023/12/26 13:40:43;;;;;;;6.10;2.10;;;;;;;;;;103706;1289;544919;-69
2023/12/26 13:44:20;;;;;;;6.10;1.50;;;;;;;;;;103540;1295;544916;-70
2023/12/26 13:47:57;;;;;;;8.40;3.30;;;;;;;;;;103734;1289;545363;-69
2023/12/26 13:51:35;;;;;;;5.80;2.40;;;;;;;;;;104155;1285;545032;-69
2023/12/26 13:55:13;;;;;;;3.90;1.60;;;;;;;;;;103972;1294;544843;-70
2023/12/26 13:58:46;;;;;;;4.10;1.40;;;;;;;;;;104263;1288;545372;-69
2023/12/26 14:02:28;;;;;;;3.80;1.10;;;;;;;;;;104110;1286;545056;-70
2023/12/26 14:06:05;;;;;;;2.80;1.00;;;;;;;;;;104125;1292;544822;-70
2023/12/26 14:09:43;;;;;;;4.20;1.30;;;;;;;;;;104441;1281;544886;-72
2023/12/26 14:13:20;;;;;;;3.70;1.10;;;;;;;;;;103651;1298;544990;-71
2023/12/26 14:16:57;;;;;;;5.50;1.90;;;;;;;;;;103818;1289;545507;-70
2023/12/26 14:20:35;;;;;;;4.90;1.40;;;;;;;;;;103593;1292;545115;-71
2023/12/26 14:24:12;;;;;;;5.60;1.60;;;;;;;;;;103633;1294;545930;-73
2023/12/26 14:27:45;;;;;;;5.40;1.50;;;;;;;;;;103624;1293;545196;-73
2023/12/26 14:31:28;;;;;;;3.30;1.00;;;;;;;;;;103472;1295;545092;-70
2023/12/26 14:35:05;;;;;;;3.50;1.10;;;;;;;;;;103608;1291;545070;-70
2023/12/26 14:38:38;;;;;;;6.10;1.90;;;;;;;;;;104259;1285;544933;-72
2023/12/26 14:42:19;;;;;;;5.00;1.40;;;;;;;;;;104015;1294;544945;-71
2023/12/26 14:45:57;;;;;;;6.00;1.60;;;;;;;;;;103752;1291;544857;-71
2023/12/26 14:49:34;;;;;;;5.50;2.10;;;;;;;;;;103637;1292;544943;-72
2023/12/26 14:53:11;;;;;;;9.10;3.20;;;;;;;;;;103614;1295;545113;-70
2023/12/26 14:56:49;;;;;;;6.50;2.40;;;;;;;;;;103779;1289;545864;-72
2023/12/26 15:00:27;;;;;;;8.10;3.90;;;;;;;;;;103892;1289;545090;-69
2023/12/26 15:04:05;;;;;;;8.50;3.70;;;;;;;;;;103543;1298;545067;-72
2023/12/26 15:07:42;;;;;;;9.30;3.30;;;;;;;;;;103618;1292;545034;-70
2023/12/26 15:11:19;;;;;;;7.80;3.80;;;;;;;;;;104204;1289;545345;-70
2023/12/26 15:14:57;;;;;;;5.40;1.80;;;;;;;;;;103981;1302;545069;-72
2023/12/26 15:18:30;;;;;;;4.90;1.60;;;;;;;;;;103855;1289;545800;-72
2023/12/26 15:22:12;;;;;;;5.00;1.90;;;;;;;;;;104004;1286;544850;-73
2023/12/26 15:25:52;;;;;;;4.30;1.60;;;;;;;;;;103805;1289;545876;-71
2023/12/26 15:29:27;;;;;;;6.00;2.30;;;;;;;;;;103684;1292;546246;-71
2023/12/26 15:33:05;;;;;;;5.10;1.90;;;;;;;;;;103907;1292;544929;-70
2023/12/26 15:36:42;;;;;;;6.20;2.40;;;;;;;;;;103799;1291;544861;-71
2023/12/26 15:40:19;;;;;;;9.30;2.80;;;;;;;;;;103649;1293;544995;-69
2023/12/26 15:43:57;;;;;;;6.30;1.90;;;;;;;;;;103526;1295;545130;-73
2023/12/26 15:47:34;;;;;;;7.00;2.00;;;;;;;;;;103795;1292;545105;-70
2023/12/26 15:51:13;;;;;;;5.20;1.60;;;;;;;;;;103727;1292;545078;-69
2023/12/26 15:54:44;;;;;;;7.70;2.90;;;;;;;;;;103783;1292;546045;-72
2023/12/26 15:58:26;;;;;;;13.20;5.00;;;;;;;;;;103647;1292;545502;-69
2023/12/26 16:02:04;;;;;;;8.10;2.90;;;;;;;;;;103476;1293;545460;-71
2023/12/26 16:05:42;;;;;;;17.60;7.20;;;;;;;;;;103821;1292;545364;-69
2023/12/26 16:09:19;;;;;;;13.10;4.70;;;;;;;;;;103524;1295;545742;-72
2023/12/26 16:12:57;;;;;;;10.10;3.30;;;;;;;;;;103530;1294;545320;-71
2023/12/26 16:16:37;;;;;;;5.40;1.80;;;;;;;;;;104202;1286;544733;-72
2023/12/26 16:20:11;;;;;;;15.80;6.50;;;;;;;;;;103863;1289;544831;-72
2023/12/26 16:23:49;;;;;;;19.30;9.50;;;;;;;;;;103618;1307;545888;-71
2023/12/26 16:27:26;;;;;;;14.00;6.80;;;;;;;;;;103530;1295;545142;-70
2023/12/26 16:31:04;;;;;;;10.50;4.70;;;;;;;;;;103469;1292;545513;-71
2023/12/26 16:34:40;;;;;;;8.60;3.90;;;;;;;;;;103807;1289;544786;-73
2023/12/26 16:38:18;;;;;;;7.80;3.70;;;;;;;;;;103844;1292;545084;-71
2023/12/26 16:42:00;;;;;;;10.60;3.40;;;;;;;;;;104549;1285;544908;-71
2023/12/26 16:45:33;;;;;;;8.70;3.50;;;;;;;;;;104163;1289;545067;-72
2023/12/26 16:49:10;;;;;;;5.50;2.00;;;;;;;;;;103774;1290;545563;-69
2023/12/26 16:52:44;;;;;;;7.60;2.90;;;;;;;;;;103742;1295;545630;-70
2023/12/26 16:56:26;;;;;;;11.90;5.10;;;;;;;;;;103875;1289;545874;-71
2023/12/26 17:00:05;;;;;;;18.20;7.50;;;;;;;;;;103668;1292;545583;-70
2023/12/26 17:03:38;;;;;;;14.00;5.50;;;;;;;;;;104026;1290;544990;-70
2023/12/26 17:07:19;;;;;;;28.30;9.40;;;;;;;;;;104330;1292;545030;-69
2023/12/26 17:10:56;;;;;;;9.50;4.10;;;;;;;;;;103880;1289;545659;-70
2023/12/26 17:14:33;;;;;;;12.00;6.10;;;;;;;;;;103627;1292;544875;-72
2023/12/26 17:18:10;;;;;;;8.30;2.90;;;;;;;;;;103760;1288;545107;-69
2023/12/26 17:21:50;;;;;;;8.50;3.10;;;;;;;;;;103583;1292;544914;-69
2023/12/26 17:25:26;;;;;;;10.00;4.30;;;;;;;;;;103776;1291;545604;-71
2023/12/26 17:29:03;;;;;;;8.80;3.40;;;;;;;;;;104040;1292;545253;-70
2023/12/26 17:32:42;;;;;;;12.80;7.20;;;;;;;;;;103532;1291;545505;-70
2023/12/26 17:36:18;;;;;;;8.70;3.50;;;;;;;;;;104101;1291;545059;-70
2023/12/26 17:39:57;;;;;;;9.40;4.30;;;;;;;;;;103908;1292;545065;-72
2023/12/26 17:43:33;;;;;;;10.20;5.10;;;;;;;;;;103705;1289;545861;-72
2023/12/26 17:47:10;;;;;;;9.60;4.10;;;;;;;;;;104145;1300;545201;-71
2023/12/26 17:50:48;;;;;;;8.30;3.70;;;;;;;;;;104030;1288;545257;-69
2023/12/26 17:54:26;;;;;;;8.50;3.20;;;;;;;;;;103582;1295;545094;-70
2023/12/26 17:58:03;;;;;;;19.40;7.80;;;;;;;;;;103865;1290;545283;-72
2023/12/26 18:01:40;;;;;;;30.80;14.10;;;;;;;;;;103635;1292;545062;-71
2023/12/26 18:05:18;;;;;;;8.00;3.30;;;;;;;;;;103612;1295;545295;-71
2023/12/26 18:08:52;;;;;;;7.40;3.00;;;;;;;;;;103907;1289;545131;-72
2023/12/26 18:12:33;;;;;;;10.70;5.20;;;;;;;;;;103434;1295;545079;-73
2023/12/26 18:16:16;;;;;;;7.50;2.60;;;;;;;;;;104058;1299;545116;-70
2023/12/26 18:19:54;;;;;;;9.00;3.90;;;;;;;;;;104257;1282;545097;-72
2023/12/26 18:23:25;;;;;;;11.30;4.90;;;;;;;;;;103554;1293;545067;-72
2023/12/26 18:26:59;;;;;;;19.50;9.50;;;;;;;;;;103639;1303;545272;-71
2023/12/26 18:30:45;;;;;;;16.50;7.40;;;;;;;;;;103762;1289;545035;-72
2023/12/26 18:34:18;;;;;;;21.50;10.70;;;;;;;;;;103574;1295;545254;-72
2023/12/26 18:37:55;;;;;;;15.90;7.50;;;;;;;;;;103784;1289;545049;-70
2023/12/26 18:41:32;;;;;;;14.30;6.80;;;;;;;;;;103571;1292;545125;-72
2023/12/26 18:45:31;;;;;;;15.60;8.80;;;;;;;;;;103491;1292;546516;-69
2023/12/26 18:48:47;;;;;;;10.00;5.00;;;;;;;;;;103781;1292;545037;-72
2023/12/26 18:52:24;;;;;;;7.90;3.30;;;;;;;;;;103731;1292;545847;-72
2023/12/26 18:55:58;;;;;;;8.40;3.80;;;;;;;;;;103970;1300;544893;-72
2023/12/26 18:59:40;;;;;;;10.40;3.70;;;;;;;;;;104616;1282;545098;-71
2023/12/26 19:03:17;;;;;;;16.30;8.80;;;;;;;;;;103434;1295;545208;-72
2023/12/26 19:06:54;;;;;;;26.20;14.20;;;;;;;;;;103791;1299;545050;-71
2023/12/26 19:10:32;;;;;;;14.00;7.30;;;;;;;;;;103533;1291;545100;-69
2023/12/26 19:14:10;;;;;;;9.80;4.30;;;;;;;;;;104350;1292;545195;-70
2023/12/26 19:17:47;;;;;;;9.80;4.30;;;;;;;;;;103707;1295;545193;-70
2023/12/26 19:21:20;;;;;;;10.20;3.30;;;;;;;;;;104183;1285;545490;-72
2023/12/26 19:25:02;;;;;;;7.80;2.70;;;;;;;;;;103834;1291;544979;-71
2023/12/26 19:28:35;;;;;;;8.50;2.70;;;;;;;;;;103727;1295;544844;-71
2023/12/26 19:32:17;;;;;;;9.40;2.40;;;;;;;;;;103549;1293;545706;-70
2023/12/26 19:35:54;;;;;;;8.40;2.30;;;;;;;;;;103665;1294;544847;-70
2023/12/26 19:39:47;;;;;;;7.80;2.80;;;;;;;;;;103815;1292;545532;-71
2023/12/26 19:43:09;;;;;;;6.90;2.20;;;;;;;;;;103560;1291;544927;-71
2023/12/26 19:46:47;;;;;;;5.90;2.00;;;;;;;;;;103577;1294;545560;-72
2023/12/26 19:50:24;;;;;;;8.10;2.80;;;;;;;;;;103746;1292;544934;-72
2023/12/26 19:54:02;;;;;;;24.50;10.10;;;;;;;;;;103493;1292;545686;-69
2023/12/26 19:57:38;;;;;;;9.30;3.50;;;;;;;;;;103482;1295;545849;-72
2023/12/26 20:01:16;;;;;;;11.30;4.40;;;;;;;;;;103958;1288;545223;-73
2023/12/26 20:04:56;;;;;;;9.80;4.50;;;;;;;;;;103488;1294;544885;-70
2023/12/26 20:08:32;;;;;;;16.50;7.80;;;;;;;;;;103790;1292;545308;-72
2023/12/26 20:12:09;;;;;;;18.00;7.10;;;;;;;;;;103755;1292;545377;-69
2023/12/26 20:15:49;;;;;;;31.50;14.00;;;;;;;;;;103706;1295;545754;-71
2023/12/26 20:19:24;;;;;;;29.10;14.00;;;;;;;;;;103514;1292;545209;-71
2023/12/26 20:23:04;;;;;;;18.60;8.40;;;;;;;;;;103623;1291;545340;-68
2023/12/26 20:26:46;;;;;;;24.10;12.70;;;;;;;;;;103370;1291;545110;-70
2023/12/26 20:30:16;;;;;;;18.60;9.10;;;;;;;;;;103793;1289;545537;-71
2023/12/26 20:33:54;;;;;;;14.00;5.90;;;;;;;;;;103915;1288;545090;-69
2023/12/26 20:37:31;;;;;;;20.80;9.80;;;;;;;;;;103802;1289;545145;-72
2023/12/26 20:41:11;;;;;;;20.90;10.70;;;;;;;;;;103792;1295;544844;-71
2023/12/26 20:44:47;;;;;;;23.50;13.80;;;;;;;;;;103502;1291;546004;-70
2023/12/26 20:48:24;;;;;;;14.60;7.90;;;;;;;;;;103797;1291;544978;-69
2023/12/26 20:52:02;;;;;;;11.30;6.20;;;;;;;;;;103716;1292;545732;-72
2023/12/26 20:55:40;;;;;;;9.90;3.80;;;;;;;;;;104657;1282;545328;-71
2023/12/26 20:59:16;;;;;;;7.60;3.00;;;;;;;;;;103786;1295;544935;-71